createdAt,value
2022-10-05T00:01:40.360Z,92.00
2022-10-05T00:04:22.254Z,92.10
2022-10-05T00:07:01.320Z,92.10
2022-10-05T00:09:31.713Z,92.10
2022-10-05T00:11:58.882Z,92.40
2022-10-05T00:14:33.407Z,92.00
2022-10-05T00:17:01.934Z,92.00
2022-10-05T00:19:39.119Z,92.00
2022-10-05T00:22:08.934Z,91.90
2022-10-05T00:24:36.059Z,91.90
2022-10-05T00:27:23.475Z,91.90
2022-10-05T00:29:53.997Z,92.00
2022-10-05T00:32:20.891Z,92.00
2022-10-05T00:34:47.936Z,91.90
2022-10-05T00:37:15.153Z,92.00
2022-10-05T00:39:42.631Z,92.10
2022-10-05T00:42:38.841Z,92.10
2022-10-05T00:45:24.809Z,92.20
2022-10-05T00:48:28.229Z,92.40
2022-10-05T00:51:28.238Z,92.40
2022-10-05T00:54:38.743Z,92.40
2022-10-05T00:57:45.824Z,92.50
2022-10-05T01:00:19.373Z,92.50
2022-10-05T01:02:52.079Z,92.70
2022-10-05T01:06:15.438Z,92.40
2022-10-05T01:08:58.557Z,92.70
2022-10-05T01:11:43.731Z,92.60
2022-10-05T01:14:52.576Z,92.60
2022-10-05T01:17:32.099Z,92.60
2022-10-05T01:20:16.874Z,92.60
2022-10-05T01:23:25.907Z,92.60
2022-10-05T01:26:53.612Z,92.70
2022-10-05T01:29:50.972Z,92.70
2022-10-05T01:32:44.995Z,93.00
2022-10-05T01:35:29.345Z,92.80
2022-10-05T01:38:25.447Z,92.90
2022-10-05T01:41:07.878Z,93.00
2022-10-05T01:43:49.652Z,92.90
2022-10-05T01:46:44.483Z,92.90
2022-10-05T01:49:52.613Z,93.10
2022-10-05T01:53:05.898Z,93.10
2022-10-05T01:55:59.481Z,93.30
2022-10-05T01:59:01.566Z,93.40
2022-10-05T02:01:55.283Z,93.30
2022-10-05T02:07:49.497Z,93.40
2022-10-05T02:10:40.456Z,93.40
2022-10-05T02:13:16.863Z,93.50
2022-10-05T02:15:56.142Z,93.60
2022-10-05T02:18:32.556Z,93.60
2022-10-05T02:21:05.674Z,93.60
2022-10-05T02:23:36.846Z,93.60
2022-10-05T02:26:04.871Z,93.60
2022-10-05T02:28:46.598Z,93.50
2022-10-05T02:31:24.161Z,93.50
2022-10-05T02:33:51.191Z,93.40
2022-10-05T02:36:36.739Z,93.40
2022-10-05T02:39:46.833Z,93.40
2022-10-05T02:43:01.158Z,93.30
2022-10-05T02:46:03.196Z,93.30
2022-10-05T02:49:10.518Z,93.20
2022-10-05T02:51:59.074Z,93.20
2022-10-05T02:54:44.504Z,93.30
2022-10-05T02:57:28.035Z,93.40
2022-10-05T03:00:17.011Z,93.40
2022-10-05T03:03:06.600Z,93.50
2022-10-05T03:06:02.595Z,93.40
2022-10-05T03:08:45.164Z,93.60
2022-10-05T03:11:35.163Z,93.50
2022-10-05T03:14:27.026Z,93.50
2022-10-05T03:17:20.254Z,93.50
2022-10-05T03:20:29.589Z,93.50
2022-10-05T03:23:01.175Z,93.50
2022-10-05T03:25:59.599Z,93.50
2022-10-05T03:28:58.897Z,93.60
2022-10-05T03:31:49.119Z,93.70
2022-10-05T03:34:36.227Z,93.70
2022-10-05T03:37:16.506Z,93.60
2022-10-05T03:40:07.327Z,93.70
2022-10-05T03:42:59.063Z,93.70
2022-10-05T03:45:48.953Z,93.70
2022-10-05T03:48:27.580Z,93.70
2022-10-05T03:51:12.999Z,93.70
2022-10-05T03:53:50.056Z,93.70
2022-10-05T03:56:33.093Z,93.70
2022-10-05T03:59:14.803Z,93.60
2022-10-05T04:01:57.057Z,93.70
2022-10-05T04:04:49.213Z,93.70
2022-10-05T04:07:40.436Z,93.70
2022-10-05T04:10:23.663Z,93.70
2022-10-05T04:13:06.063Z,93.70
2022-10-05T04:16:06.597Z,93.70
2022-10-05T04:19:51.357Z,93.70
2022-10-05T04:22:28.553Z,93.70
2022-10-05T04:25:06.013Z,93.70
2022-10-05T04:27:48.021Z,93.70
2022-10-05T04:30:19.395Z,93.70
2022-10-05T04:32:57.733Z,93.70
2022-10-05T04:35:59.409Z,93.70
2022-10-05T04:38:31.381Z,93.70
2022-10-05T04:41:36.192Z,93.60
2022-10-05T04:44:43.899Z,93.60
2022-10-05T04:48:06.192Z,93.50
2022-10-05T04:50:39.619Z,93.50
2022-10-05T04:53:39.636Z,93.50
2022-10-05T04:56:20.519Z,93.60
2022-10-05T04:59:41.395Z,93.60
2022-10-05T05:02:28.919Z,93.70
2022-10-05T05:05:21.995Z,93.60
2022-10-05T05:08:30.083Z,93.70
2022-10-05T05:11:16.727Z,93.80
2022-10-05T05:14:05.369Z,93.80
2022-10-05T05:16:38.978Z,93.90
2022-10-05T05:19:38.828Z,93.90
2022-10-05T05:22:47.177Z,93.90
2022-10-05T05:25:32.497Z,93.90
2022-10-05T05:28:25.431Z,94.00
2022-10-05T05:31:40.927Z,94.00
2022-10-05T05:34:22.542Z,93.90
2022-10-05T05:37:25.985Z,93.90
2022-10-05T05:40:26.898Z,93.90
2022-10-05T05:43:03.347Z,93.90
2022-10-05T05:46:00.457Z,93.90
2022-10-05T05:48:41.406Z,93.90
2022-10-05T05:51:17.567Z,93.80
2022-10-05T05:53:58.038Z,93.70
2022-10-05T05:56:37.481Z,93.70
2022-10-05T05:59:27.858Z,93.70
2022-10-05T06:02:19.229Z,93.60
2022-10-05T06:05:22.515Z,93.50
2022-10-05T06:07:52.668Z,93.40
2022-10-05T06:10:41.749Z,93.40
2022-10-05T06:13:33.086Z,93.20
2022-10-05T06:16:38.640Z,93.30
2022-10-05T06:19:17.564Z,93.10
2022-10-05T06:21:58.321Z,93.20
2022-10-05T06:25:10.368Z,93.30
2022-10-05T06:27:59.945Z,93.30
2022-10-05T06:30:43.185Z,93.30
2022-10-05T06:33:38.459Z,93.30
2022-10-05T06:36:38.047Z,93.30
2022-10-05T06:39:37.365Z,93.30
2022-10-05T06:43:02.120Z,93.30
2022-10-05T06:46:18.544Z,93.30
2022-10-05T06:49:20.985Z,93.30
2022-10-05T06:52:14.894Z,93.30
2022-10-05T06:55:08.626Z,93.30
2022-10-05T06:58:21.200Z,93.40
2022-10-05T07:00:53.054Z,93.30
2022-10-05T07:03:31.622Z,93.30
2022-10-05T07:06:11.856Z,93.10
2022-10-05T07:09:02.026Z,93.10
2022-10-05T07:12:14.726Z,93.10
2022-10-05T07:14:58.715Z,93.00
2022-10-05T07:18:00.658Z,92.70
2022-10-05T07:20:49.241Z,92.50
2022-10-05T07:23:30.775Z,92.50
2022-10-05T07:26:10.197Z,92.80
2022-10-05T07:28:48.717Z,92.40
2022-10-05T07:31:46.724Z,92.50
2022-10-05T07:35:01.693Z,92.30
2022-10-05T07:38:00.090Z,92.30
2022-10-05T07:40:41.576Z,92.40
2022-10-05T07:44:02.146Z,92.50
2022-10-05T07:46:52.019Z,92.30
2022-10-05T07:49:52.026Z,92.10
2022-10-05T07:52:38.307Z,92.10
2022-10-05T07:55:20.750Z,92.10
2022-10-05T07:58:16.875Z,92.10
2022-10-05T08:01:05.912Z,92.10
2022-10-05T08:03:52.143Z,92.20
2022-10-05T08:06:33.193Z,92.20
2022-10-05T08:09:28.247Z,92.20
2022-10-05T08:12:42.719Z,92.20
2022-10-05T08:15:17.747Z,92.10
2022-10-05T08:18:05.865Z,92.10
2022-10-05T08:20:45.086Z,92.20
2022-10-05T08:23:40.130Z,92.10
2022-10-05T08:26:34.612Z,92.00
2022-10-05T08:29:33.169Z,92.00
2022-10-05T08:32:12.067Z,91.90
2022-10-05T08:35:21.673Z,91.70
2022-10-05T08:37:49.497Z,91.50
2022-10-05T08:40:21.356Z,91.50
2022-10-05T08:43:24.659Z,91.20
2022-10-05T08:46:45.063Z,91.10
2022-10-05T08:49:58.544Z,90.90
2022-10-05T08:53:23.520Z,90.70
2022-10-05T08:56:25.143Z,90.90
2022-10-05T08:59:39.977Z,90.90
2022-10-05T09:02:41.464Z,90.70
2022-10-05T09:05:58.365Z,90.80
2022-10-05T09:08:51.863Z,90.90
2022-10-05T09:11:36.805Z,90.60
2022-10-05T09:14:33.249Z,90.70
2022-10-05T09:17:21.063Z,90.50
2022-10-05T09:20:10.663Z,90.80
2022-10-05T09:22:59.336Z,90.70
2022-10-05T09:25:43.723Z,90.30
2022-10-05T09:28:31.064Z,90.50
2022-10-05T09:32:10.785Z,90.30
2022-10-05T09:35:24.381Z,90.30
2022-10-05T09:38:15.061Z,90.30
2022-10-05T09:41:03.999Z,90.20
2022-10-05T09:44:08.690Z,90.30
2022-10-05T09:47:01.363Z,90.00
2022-10-05T09:50:22.804Z,90.10
2022-10-05T09:53:12.536Z,90.20
2022-10-05T09:56:15.575Z,90.30
2022-10-05T09:59:13.279Z,90.30
2022-10-05T10:02:27.471Z,90.40
2022-10-05T10:05:43.978Z,90.20
2022-10-05T10:08:36.407Z,90.10
2022-10-05T10:11:38.694Z,90.20
2022-10-05T10:15:03.053Z,89.80
2022-10-05T10:18:09.669Z,89.50
2022-10-05T10:21:04.766Z,89.00
2022-10-05T10:24:14.750Z,88.80
2022-10-05T10:27:28.944Z,88.90
2022-10-05T10:30:18.947Z,88.10
2022-10-05T10:33:15.844Z,87.70
2022-10-05T10:36:13.882Z,88.40
2022-10-05T10:39:02.300Z,87.30
2022-10-05T10:41:57.009Z,87.60
2022-10-05T10:44:58.801Z,87.70
2022-10-05T10:47:56.500Z,87.10
2022-10-05T10:50:53.416Z,87.40
2022-10-05T10:53:56.065Z,86.30
2022-10-05T10:56:50.917Z,86.40
2022-10-05T11:00:02.473Z,86.70
2022-10-05T11:02:49.893Z,86.10
2022-10-05T11:05:55.777Z,86.40
2022-10-05T11:09:17.259Z,85.80
2022-10-05T11:12:21.977Z,86.20
2022-10-05T11:15:24.298Z,86.00
2022-10-05T11:18:11.114Z,85.60
2022-10-05T11:20:59.967Z,85.80
2022-10-05T11:24:10.364Z,86.40
2022-10-05T11:27:16.150Z,85.70
2022-10-05T11:30:20.312Z,85.20
2022-10-05T11:33:03.904Z,85.80
2022-10-05T11:35:57.903Z,85.50
2022-10-05T11:38:58.303Z,85.00
2022-10-05T11:42:02.481Z,84.60
2022-10-05T11:45:12.997Z,84.90
2022-10-05T11:48:00.101Z,84.50
2022-10-05T11:50:46.127Z,84.20
2022-10-05T11:53:31.337Z,83.80
2022-10-05T11:56:25.477Z,84.50
2022-10-05T11:59:09.597Z,84.10
2022-10-05T12:02:21.685Z,83.30
2022-10-05T12:05:23.043Z,83.20
2022-10-05T12:08:11.909Z,83.40
2022-10-05T12:11:26.127Z,82.70
2022-10-05T12:14:08.351Z,82.90
2022-10-05T12:16:49.938Z,83.10
2022-10-05T12:19:41.057Z,82.30
2022-10-05T12:22:29.909Z,82.70
2022-10-05T12:25:11.645Z,82.50
2022-10-05T12:27:46.168Z,81.70
2022-10-05T12:30:51.783Z,81.80
2022-10-05T12:34:01.689Z,81.80
2022-10-05T12:37:02.939Z,80.40
2022-10-05T12:39:39.081Z,80.20
2022-10-05T12:42:26.040Z,80.80
2022-10-05T12:45:38.410Z,80.50
2022-10-05T12:48:40.237Z,80.60
2022-10-05T12:51:24.279Z,80.30
2022-10-05T12:54:15.929Z,80.80
2022-10-05T12:56:55.802Z,80.90
2022-10-05T12:59:50.547Z,80.50
2022-10-05T13:02:39.219Z,80.20
2022-10-05T13:05:09.047Z,80.10
2022-10-05T13:08:06.032Z,80.00
2022-10-05T13:10:46.607Z,80.40
2022-10-05T13:13:34.169Z,80.70
2022-10-05T13:16:21.878Z,80.30
2022-10-05T13:19:29.268Z,80.70
2022-10-05T13:22:39.358Z,80.00
2022-10-05T13:25:18.030Z,80.30
2022-10-05T13:28:17.090Z,81.00
2022-10-05T13:30:58.934Z,80.70
2022-10-05T13:34:12.727Z,80.20
2022-10-05T13:37:12.482Z,78.90
2022-10-05T13:40:19.763Z,78.30
2022-10-05T13:43:23.988Z,78.00
2022-10-05T13:46:01.998Z,78.30
2022-10-05T13:48:47.331Z,78.00
2022-10-05T13:51:29.895Z,78.30
2022-10-05T13:54:09.237Z,78.30
2022-10-05T13:57:05.248Z,78.60
2022-10-05T13:59:54.448Z,78.80
2022-10-05T14:02:27.741Z,78.80
2022-10-05T14:05:14.313Z,78.40
2022-10-05T14:08:04.007Z,77.80
2022-10-05T14:10:39.276Z,77.10
2022-10-05T14:13:33.950Z,77.60
2022-10-05T14:16:12.293Z,77.20
2022-10-05T14:18:52.419Z,77.30
2022-10-05T14:21:23.468Z,76.90
2022-10-05T14:23:51.640Z,77.40
2022-10-05T14:26:33.632Z,77.80
2022-10-05T14:29:25.342Z,78.00
2022-10-05T14:32:01.911Z,78.60
2022-10-05T14:34:45.971Z,78.60
2022-10-05T14:37:26.011Z,78.60
2022-10-05T14:39:57.888Z,78.60
2022-10-05T14:42:28.812Z,78.70
2022-10-05T14:45:14.515Z,79.00
2022-10-05T14:47:52.123Z,79.00
2022-10-05T14:50:29.487Z,79.20
2022-10-05T14:53:11.567Z,79.40
2022-10-05T14:56:10.955Z,79.70
2022-10-05T14:59:14.057Z,79.50
2022-10-05T15:02:23.331Z,79.40
2022-10-05T15:05:01.584Z,79.10
2022-10-05T15:07:41.310Z,79.50
2022-10-05T15:10:52.442Z,79.70
2022-10-05T15:13:24.507Z,79.90
2022-10-05T15:15:55.348Z,79.90
2022-10-05T15:18:52.312Z,80.00
2022-10-05T15:21:36.458Z,80.30
2022-10-05T15:24:27.053Z,80.50
2022-10-05T15:27:04.101Z,80.50
2022-10-05T15:30:01.233Z,80.70
2022-10-05T15:32:55.461Z,81.70
2022-10-05T15:35:36.065Z,81.10
2022-10-05T15:38:20.954Z,81.10
2022-10-05T15:41:11.010Z,81.40
2022-10-05T15:43:50.366Z,81.40
2022-10-05T15:46:34.137Z,81.40
2022-10-05T15:49:26.067Z,82.20
2022-10-05T15:52:05.392Z,81.40
2022-10-05T15:55:05.125Z,81.50
2022-10-05T15:58:00.549Z,81.70
2022-10-05T16:00:28.236Z,81.70
2022-10-05T16:03:19.627Z,81.70
2022-10-05T16:06:40.404Z,81.90
2022-10-05T16:09:24.480Z,82.00
2022-10-05T16:12:16.199Z,82.00
2022-10-05T16:15:16.804Z,82.20
2022-10-05T16:18:32.222Z,82.20
2022-10-05T16:21:25.145Z,82.50
2022-10-05T16:24:39.682Z,82.60
2022-10-05T16:27:48.108Z,82.80
2022-10-05T16:30:22.499Z,83.30
2022-10-05T16:33:11.861Z,83.20
2022-10-05T16:36:28.032Z,83.50
2022-10-05T16:39:55.611Z,83.80
2022-10-05T16:42:59.795Z,84.10
2022-10-05T16:46:03.444Z,84.20
2022-10-05T16:48:58.197Z,84.60
2022-10-05T16:51:56.338Z,84.80
2022-10-05T16:54:46.885Z,85.00
2022-10-05T16:57:22.665Z,84.50
2022-10-05T17:00:08.843Z,84.90
2022-10-05T17:03:17.745Z,85.30
2022-10-05T17:06:07.013Z,85.60
2022-10-05T17:09:19.401Z,85.00
2022-10-05T17:12:46.127Z,85.90
2022-10-05T17:15:41.338Z,85.90
2022-10-05T17:18:45.282Z,86.00
2022-10-05T17:21:38.533Z,85.70
2022-10-05T17:24:28.756Z,85.70
2022-10-05T17:27:21.225Z,85.90
2022-10-05T17:29:54.771Z,86.10
2022-10-05T17:32:36.752Z,85.90
2022-10-05T17:35:18.729Z,86.30
2022-10-05T17:38:17.201Z,86.40
2022-10-05T17:41:11.899Z,86.90
2022-10-05T17:43:38.901Z,87.10
2022-10-05T17:46:10.210Z,86.60
2022-10-05T17:49:06.686Z,86.90
2022-10-05T17:52:08.605Z,87.10
2022-10-05T17:55:02.498Z,87.20
2022-10-05T17:57:29.736Z,88.10
2022-10-05T18:00:02.405Z,87.60
2022-10-05T18:02:38.429Z,88.20
2022-10-05T18:05:16.109Z,88.20
2022-10-05T18:07:48.546Z,88.20
2022-10-05T18:10:28.659Z,88.40
2022-10-05T18:13:01.633Z,88.90
2022-10-05T18:15:28.439Z,89.20
2022-10-05T18:18:21.208Z,88.90
2022-10-05T18:21:18.261Z,89.20
2022-10-05T18:24:14.081Z,89.80
2022-10-05T18:27:00.395Z,89.60
2022-10-05T18:30:02.421Z,89.60
2022-10-05T18:32:50.834Z,90.10
2022-10-05T18:36:07.083Z,90.10
2022-10-05T18:39:00.070Z,90.20
2022-10-05T18:41:58.366Z,90.20
2022-10-05T18:44:50.125Z,90.40
2022-10-05T18:47:50.950Z,90.60
2022-10-05T18:50:48.444Z,90.50
2022-10-05T18:53:47.254Z,90.50
2022-10-05T18:56:30.274Z,90.70
2022-10-05T18:59:32.146Z,90.60
2022-10-05T19:02:19.720Z,90.80
2022-10-05T19:05:35.806Z,90.80
2022-10-05T19:08:45.159Z,91.10
2022-10-05T19:11:33.051Z,91.10
2022-10-05T19:14:24.639Z,91.40
2022-10-05T19:17:42.808Z,91.10
2022-10-05T19:20:52.092Z,91.20
2022-10-05T19:23:44.607Z,91.20
2022-10-05T19:26:59.907Z,91.00
2022-10-05T19:29:47.340Z,91.10
2022-10-05T19:32:51.234Z,91.10
2022-10-05T19:35:33.413Z,91.40
2022-10-05T19:38:16.589Z,91.20
2022-10-05T19:41:26.192Z,91.40
2022-10-05T19:44:25.356Z,91.40
2022-10-05T19:47:02.391Z,91.50
2022-10-05T19:49:58.282Z,91.50
2022-10-05T19:52:41.211Z,91.80
2022-10-05T19:55:44.387Z,91.50
2022-10-05T19:58:31.409Z,91.90
2022-10-05T20:01:07.850Z,91.80
2022-10-05T20:03:37.973Z,91.70
2022-10-05T20:06:07.879Z,91.60
2022-10-05T20:08:46.867Z,91.80
2022-10-05T20:11:27.173Z,92.00
2022-10-05T20:13:54.872Z,92.20
2022-10-05T20:16:53.252Z,92.10
2022-10-05T20:19:52.174Z,92.30
2022-10-05T20:22:43.159Z,92.60
2022-10-05T20:25:18.898Z,92.60
2022-10-05T20:27:57.945Z,92.50
2022-10-05T20:30:28.589Z,92.40
2022-10-05T20:32:58.152Z,92.50
2022-10-05T20:35:28.778Z,92.50
2022-10-05T20:37:59.335Z,92.60
2022-10-05T20:40:30.315Z,92.60
2022-10-05T20:42:58.808Z,92.70
2022-10-05T20:45:25.724Z,92.70
2022-10-05T20:47:52.593Z,92.70
2022-10-05T20:50:22.189Z,93.00
2022-10-05T20:52:49.420Z,93.30
2022-10-05T20:55:16.360Z,93.30
2022-10-05T20:57:43.315Z,93.20
2022-10-05T21:00:12.223Z,93.20
2022-10-05T21:02:39.552Z,93.40
2022-10-05T21:05:07.662Z,93.50
2022-10-05T21:07:35.173Z,93.50
2022-10-05T21:10:03.783Z,93.50
2022-10-05T21:12:30.819Z,93.60
2022-10-05T21:14:59.680Z,93.60
2022-10-05T21:17:27.444Z,93.70
2022-10-05T21:19:54.317Z,93.70
2022-10-05T21:22:21.179Z,93.80
2022-10-05T21:24:48.419Z,93.90
2022-10-05T21:27:15.464Z,93.90
2022-10-05T21:29:44.024Z,94.00
2022-10-05T21:32:11.862Z,94.00
2022-10-05T21:34:39.994Z,94.00
2022-10-05T21:37:08.062Z,94.10
2022-10-05T21:39:35.301Z,94.00
2022-10-05T21:42:02.267Z,94.00
2022-10-05T21:44:29.141Z,94.00
2022-10-05T21:46:56.569Z,94.00
2022-10-05T21:49:24.485Z,94.00
2022-10-05T21:51:51.492Z,94.00
2022-10-05T21:54:21.926Z,93.90
2022-10-05T21:56:52.853Z,94.10
2022-10-05T21:59:22.554Z,94.00
2022-10-05T22:01:49.588Z,94.00
2022-10-05T22:04:16.477Z,93.90
2022-10-05T22:06:43.373Z,94.00
2022-10-05T22:09:10.284Z,93.90
2022-10-05T22:11:37.229Z,93.90
2022-10-05T22:14:04.818Z,93.80
2022-10-05T22:16:35.413Z,93.90
2022-10-05T22:19:12.912Z,93.90
2022-10-05T22:21:41.833Z,94.00
2022-10-05T22:24:11.609Z,94.10
2022-10-05T22:26:40.629Z,94.10
2022-10-05T22:29:07.536Z,94.10
2022-10-05T22:31:34.497Z,94.20
2022-10-05T22:34:01.415Z,94.10
2022-10-05T22:36:28.564Z,94.20
2022-10-05T22:38:55.467Z,94.10
2022-10-05T22:41:22.365Z,94.20
2022-10-05T22:43:50.734Z,94.00
2022-10-05T22:46:18.601Z,94.10
2022-10-05T22:48:45.536Z,94.10
2022-10-05T22:51:12.425Z,94.20
2022-10-05T22:53:39.302Z,94.10
2022-10-05T22:56:13.631Z,94.20
2022-10-05T22:58:41.824Z,94.30
2022-10-05T23:01:16.028Z,94.30
2022-10-05T23:03:43.191Z,94.40
2022-10-05T23:06:19.187Z,94.40
2022-10-05T23:08:47.096Z,94.50
2022-10-05T23:11:20.551Z,94.40
2022-10-05T23:13:47.685Z,94.40
2022-10-05T23:16:17.852Z,94.50
2022-10-05T23:18:47.522Z,94.60
2022-10-05T23:21:15.047Z,94.70
2022-10-05T23:23:47.322Z,94.60
2022-10-05T23:26:14.710Z,94.70
2022-10-05T23:28:46.494Z,94.60
2022-10-05T23:31:23.284Z,94.60
2022-10-05T23:33:51.288Z,94.70
2022-10-05T23:36:27.797Z,94.60
2022-10-05T23:38:54.924Z,94.70
2022-10-05T23:41:21.859Z,94.70
2022-10-05T23:43:48.827Z,94.80
2022-10-05T23:46:16.131Z,94.70
2022-10-05T23:48:43.331Z,94.70
2022-10-05T23:51:13.175Z,94.70
2022-10-05T23:53:40.169Z,94.70
2022-10-05T23:56:07.265Z,94.70
2022-10-05T23:58:34.140Z,94.60
